Latest Weather Observations for Maitland Airport

IDN60801

Issued at 7:03 am EDT Monday 30 January 2023 (issued every 10 minutes, with the page automatically refreshed every 10 minutes)

About weather observations | Map of weather stations | Latest weather observations for NSW | Other Formats
Station Details ID: 061428 Name: MAITLAND AIRPORT AWS Lat: -32.70 Lon: 151.49 Height: 27.5 m
Data from the previous 72 hours. | See also: Recent months at Maitland Airport
Date/Time
EDT
Temp
°C
App
Temp
°C
Dew
Point
°C
Rel
Hum
%
Delta-T
°C
Wind Press
QNH
hPa
Press
MSL
hPa
Rain since
9am
mm
Dir  Spd
km/h
Gust
km/h
Spd
kts
Gust
kts
30/07:00am 21.3 25.6 21.1 99 0.1 CALM 0 0 0 0 1009.7 1009.6 6.2
30/06:30am 20.9 23.6 20.7 99 0.1 NE 7 9 4 5 1009.4 1009.3 6.2
30/06:00am 21.2 23.8 21.2 100 0.0 NNE 9 11 5 6 1009.3 1009.2 6.0
30/05:30am 21.2 24.2 21.2 100 0.0 NNE 7 9 4 5 1010.1 1010.0 6.0
30/05:00am 21.3 24.4 21.1 99 0.1 N 6 7 3 4 1010.3 1010.2 6.0
30/04:30am 21.3 25.2 21.1 99 0.1 N 2 6 1 3 1010.3 1010.2 6.0
30/04:00am 21.4 24.6 21.2 99 0.1 N 6 7 3 4 1010.9 1010.8 5.8
30/03:30am 21.5 24.5 21.3 99 0.1 N 7 7 4 4 1011.4 1011.3 5.8
30/03:00am 21.4 24.9 21.1 98 0.2 N 4 6 2 3 1011.7 1011.6 5.6
30/02:30am 21.5 24.1 21.2 98 0.2 NNW 9 13 5 7 1011.5 1011.4 5.6
30/02:00am 21.7 25.0 21.4 98 0.2 WNW 6 9 3 5 1011.8 1011.7 5.6
30/01:30am 21.8 24.9 21.5 98 0.2 WNW 7 11 4 6 1012.5 1012.4 5.6
30/01:00am 21.9 25.1 21.6 98 0.2 WSW 7 11 4 6 1012.6 1012.5 5.6
30/12:30am 21.9 24.3 21.6 98 0.2 NW 11 15 6 8 1012.9 1012.8 5.6
30/12:00am 21.8 24.9 21.5 98 0.2 N 7 11 4 6 1013.2 1013.1 5.6
 
Date/Time
EDT
Temp
°C
App
Temp
°C
Dew
Point
°C
Rel
Hum
%
Delta-T
°C
Wind Press
QNH
hPa
Press
MSL
hPa
Rain since
9am
mm
Dir  Spd
km/h
Gust
km/h
Spd
kts
Gust
kts
29/11:30pm 21.9 25.0 21.4 97 0.3 N 7 11 4 6 1013.2 1013.1 5.6
29/11:00pm 21.9 25.5 21.2 96 0.5 N 4 11 2 6 1013.5 1013.4 5.6
29/10:30pm 21.9 24.9 21.2 96 0.5 N 7 9 4 5 1013.5 1013.4 5.4
29/10:00pm 22.1 24.8 21.3 95 0.5 N 9 11 5 6 1014.8 1014.7 5.4
29/09:30pm 22.3 25.1 21.6 96 0.5 N 9 13 5 7 1015.1 1015.0 5.4
29/09:00pm 22.7 25.5 21.5 93 0.8 NNW 9 13 5 7 1015.4 1015.3 5.2
29/08:30pm 22.5 25.0 21.8 96 0.5 NW 11 15 6 8 1015.0 1014.9 5.2
29/08:00pm 22.5 26.5 22.0 97 0.3 NNW 4 9 2 5 1013.9 1013.8 5.2
29/07:30pm 22.5 27.1 21.7 95 0.5 CALM 0 0 0 0 1013.0 1012.9 5.2
29/07:00pm 22.6 25.3 21.4 93 0.8 SSW 9 19 5 10 1013.0 1012.9 5.0
29/06:32pm 22.9 23.6 21.2 90 1.1 S 19 24 10 13 1012.2 1012.1 3.6
29/06:30pm 23.0 24.1 21.3 90 1.1 S 17 24 9 13 1012.4 1012.3 3.4
29/06:13pm 22.6 24.3 21.6 94 0.7 SSW 15 22 8 12 1012.6 1012.5 2.0
29/06:05pm 22.7 25.2 21.7 94 0.7 WSW 11 17 6 9 1013.0 1012.9 1.6
29/06:00pm 22.7 25.1 21.5 93 0.8 W 11 17 6 9 1013.2 1013.1 1.6
29/05:30pm 23.4 23.6 20.5 84 1.9 WSW 20 32 11 17 1012.8 1012.7 0.0
29/05:25pm 23.5 21.9 20.0 81 2.3 SSW 28 46 15 25 1012.4 1012.3 0.0
29/05:00pm 25.4 20.6 19.3 69 3.9 S 43 61 23 33 1010.8 1010.7 0.0
29/04:55pm 26.0 21.4 19.6 68 4.1 S 43 65 23 35 1010.5 1010.4 0.0
29/04:36pm 29.6 29.2 20.2 57 6.2 S 22 54 12 29 1010.1 1010.0 0.0
29/04:30pm 31.3 33.2 23.4 63 5.5 SE 19 26 10 14 1009.5 1009.4 0.0
29/04:00pm 32.1 32.5 22.5 57 6.6 SE 24 37 13 20 1008.9 1008.8 0.0
29/03:30pm 33.8 34.5 22.2 50 7.9 SE 22 35 12 19 1008.4 1008.3 0.0
29/03:00pm 36.4 37.1 16.0 29 13.0 E 7 11 4 6 1008.5 1008.4 0.0
29/02:30pm 37.6 38.9 17.6 31 13.0 WNW 7 17 4 9 1008.8 1008.7 0.0
29/02:00pm 36.6 36.4 17.7 32 12.3 NNW 15 20 8 11 1009.3 1009.2 0.0
29/01:30pm 36.5 37.5 18.6 35 11.8 NW 11 20 6 11 1009.9 1009.8 0.0
29/01:00pm 35.8 37.3 20.5 41 10.3 W 13 22 7 12 1010.3 1010.2 0.0
29/12:30pm 34.7 35.7 20.3 43 9.6 NW 15 20 8 11 1010.8 1010.7 0.0
29/12:00pm 33.7 35.5 21.2 48 8.5 NW 13 19 7 10 1011.2 1011.1 0.0
29/11:30am 32.8 34.3 21.3 50 7.8 NNW 15 20 8 11 1011.8 1011.7 0.0
29/11:00am 31.3 34.2 21.8 57 6.4 WNW 9 15 5 8 1012.0 1011.9 0.0
29/10:30am 28.8 32.7 23.0 71 4.0 N 7 9 4 5 1012.6 1012.5 0.0
29/10:00am 27.8 32.9 24.0 80 2.6 SW 4 9 2 5 1012.6 1012.5 0.0
29/09:44am 26.2 31.0 23.5 85 1.8 SSW 4 11 2 6 1012.8 1012.7 0.0
29/09:30am 25.0 29.5 23.6 92 1.0 SSW 6 9 3 5 1012.8 1012.7 0.0
29/09:00am 23.4 27.6 23.1 98 0.2 SSW 6 9 3 5 1012.8 1012.7 0.0
29/08:30am 23.0 27.1 23.0 100 0.0 SSW 6 11 3 6 1012.8 1012.7 0.0
29/08:00am 22.8 27.2 22.8 100 0.0 SSW 4 7 2 4 1012.4 1012.3 0.0
29/07:30am 22.5 27.5 22.5 100 0.0 CALM 0 0 0 0 1012.3 1012.2 0.0
29/07:00am 21.9 26.6 21.9 100 0.0 CALM 0 0 0 0 1011.9 1011.8 0.0
29/06:36am 21.2 24.8 21.2 100 0.0 SSW 4 7 2 4 1011.5 1011.4 0.0
29/06:30am 21.2 24.2 21.2 100 0.0 SSW 7 7 4 4 1011.5 1011.4 0.0
29/06:23am 21.3 24.3 21.3 100 0.0 SSW 7 9 4 5 1011.4 1011.3 0.0
29/06:16am 21.7 24.6 21.7 100 0.0 SSW 9 11 5 6 1011.3 1011.2 0.0
29/06:06am 20.4 23.9 20.4 100 0.0 SSE 2 9 1 5 1011.2 1011.1 0.0
29/06:00am 20.9 25.1 20.9 100 0.0 CALM 0 0 0 0 1011.0 1010.9 0.0
29/05:52am 20.3 24.1 20.1 99 0.1 CALM 0 0 0 0 1010.7 1010.6 0.0
29/05:30am 20.5 24.4 20.3 99 0.1 CALM 0 0 0 0 1010.7 1010.6 0.0
29/05:07am 21.3 25.6 21.1 99 0.1 CALM 0 0 0 0 1010.5 1010.4 0.0
29/05:03am 21.4 25.7 21.2 99 0.1 CALM 0 0 0 0 1010.5 1010.4 0.0
29/05:00am 21.5 25.9 21.3 99 0.1 CALM 0 0 0 0 1010.4 1010.3 0.0
29/04:30am 21.8 25.2 21.6 99 0.1 SSE 6 7 3 4 1010.4 1010.3 0.0
29/04:00am 22.0 25.5 21.8 99 0.1 SSE 6 6 3 3 1010.2 1010.1 0.0
29/03:30am 22.0 25.2 21.7 98 0.2 SSE 7 9 4 5 1010.2 1010.1 0.0
29/03:00am 22.3 25.6 21.8 97 0.3 ESE 7 9 4 5 1010.1 1010.0 0.0
29/02:30am 22.7 25.7 21.9 95 0.5 ESE 9 11 5 6 1010.2 1010.1 0.0
29/02:00am 23.5 27.2 22.5 94 0.7 ESE 7 9 4 5 1010.1 1010.0 0.0
29/01:30am 24.0 27.0 22.6 92 0.9 ESE 11 17 6 9 1010.4 1010.3 0.0
29/01:00am 24.1 27.1 22.7 92 0.9 ESE 11 15 6 8 1010.4 1010.3 0.0
29/12:30am 24.4 28.1 22.5 89 1.3 ESE 7 11 4 6 1010.9 1010.8 0.0
29/12:00am 25.0 27.6 22.7 87 1.6 ESE 13 19 7 10 1011.0 1010.9 0.0
 
Date/Time
EDT
Temp
°C
App
Temp
°C
Dew
Point
°C
Rel
Hum
%
Delta-T
°C
Wind Press
QNH
hPa
Press
MSL
hPa
Rain since
9am
mm
Dir  Spd
km/h
Gust
km/h
Spd
kts
Gust
kts
28/11:30pm 25.4 27.5 22.5 84 2.0 ESE 15 20 8 11 1011.0 1010.9 0.0
28/11:00pm 25.6 28.0 22.3 82 2.2 ESE 13 15 7 8 1010.9 1010.8 0.0
28/10:30pm 26.1 29.0 22.4 80 2.5 SE 11 15 6 8 1010.9 1010.8 0.0
28/10:00pm 26.2 29.9 22.5 80 2.5 ESE 7 11 4 6 1010.8 1010.7 0.0
28/09:30pm 26.6 29.0 22.2 77 3.0 ESE 13 19 7 10 1010.5 1010.4 0.0
28/09:00pm 27.5 29.6 22.4 73 3.4 ESE 15 20 8 11 1010.5 1010.4 0.0
28/08:30pm 28.4 31.0 22.6 71 3.9 ESE 13 17 7 9 1010.2 1010.1 0.0
28/08:00pm 29.4 31.2 22.6 67 4.6 E 17 24 9 13 1009.8 1009.7 0.0
28/07:30pm 30.1 31.3 22.5 63 5.2 ENE 20 28 11 15 1009.4 1009.3 0.0
28/07:00pm 31.1 32.1 22.1 58 6.1 ENE 20 28 11 15 1009.3 1009.2 0.0
28/06:30pm 32.4 33.2 22.5 56 6.8 ENE 22 32 12 17 1009.2 1009.1 0.0
28/06:00pm 32.3 33.2 22.7 57 6.6 E 22 30 12 16 1009.0 1008.9 0.0
28/05:30pm 32.8 33.8 22.9 56 6.8 ESE 22 33 12 18 1008.9 1008.8 0.0
28/05:00pm 33.5 34.2 22.9 53 7.3 ESE 24 35 13 19 1008.8 1008.7 0.0
28/04:30pm 34.3 35.4 22.4 50 8.2 E 20 30 11 16 1009.0 1008.9 0.0
28/04:00pm 34.7 36.4 21.7 46 8.9 NE 15 26 8 14 1009.2 1009.1 0.0
28/03:30pm 34.7 36.1 19.5 40 10.1 E 11 20 6 11 1009.9 1009.8 0.0
28/03:00pm 34.2 35.5 20.2 43 9.4 ESE 13 24 7 13 1010.2 1010.1 0.0
28/02:30pm 33.8 35.3 19.8 43 9.3 NE 11 20 6 11 1010.7 1010.6 0.0
28/02:00pm 33.1 34.7 19.2 43 9.1 WNW 9 15 5 8 1011.1 1011.0 0.0
28/01:30pm 33.3 35.9 20.1 45 8.8 WSW 6 11 3 6 1011.4 1011.3 0.0
28/01:00pm 32.4 34.1 19.3 46 8.6 SW 9 15 5 8 1011.8 1011.7 0.0
28/12:30pm 31.2 33.8 20.5 53 7.1 E 7 13 4 7 1012.2 1012.1 0.0
28/12:00pm 30.5 33.2 21.3 58 6.2 SSE 9 13 5 7 1012.7 1012.6 0.0
28/11:30am 30.0 32.2 20.5 56 6.3 W 9 15 5 8 1013.2 1013.1 0.0
28/11:00am 29.2 31.6 20.9 61 5.5 W 9 15 5 8 1013.4 1013.3 0.0
28/10:30am 28.3 31.3 21.3 65 4.7 WNW 7 13 4 7 1013.8 1013.7 0.0
28/10:00am 27.3 30.0 21.3 69 4.0 W 9 15 5 8 1014.0 1013.9 0.0
28/09:30am 26.3 29.6 21.5 75 3.2 E 6 11 3 6 1014.0 1013.9 0.0
28/09:00am 25.4 28.4 21.3 78 2.7 E 7 9 4 5 1013.9 1013.8 0.2
28/08:30am 23.6 28.1 21.5 88 1.4 CALM 0 0 0 0 1014.0 1013.9 -
28/08:04am 22.6 26.8 22.4 99 0.1 E 4 7 2 4 1013.8 1013.7 -
28/08:00am 22.4 26.1 22.2 99 0.1 E 6 7 3 4 1013.8 1013.7 -
28/07:52am 22.4 26.2 22.4 100 0.0 E 6 7 3 4 1013.8 1013.7 -
28/07:30am 22.1 26.5 22.1 100 0.0 ESE 2 6 1 3 1013.4 1013.3 -
28/07:00am 20.7 24.8 20.7 100 0.0 CALM 0 6 0 3 1013.2 1013.1 -
28/06:48am 20.0 23.7 20.0 100 0.0 CALM 0 0 0 0 1013.0 1012.9 -
28/06:46am 20.0 23.7 20.0 100 0.0 CALM 0 0 0 0 1013.0 1012.9 -
28/06:34am 19.4 22.7 19.2 99 0.1 CALM 0 0 0 0 1012.8 1012.7 -
28/06:30am 19.4 22.7 19.2 99 0.1 CALM 0 0 0 0 1012.7 1012.6 -
28/06:25am 19.3 22.6 19.1 99 0.1 CALM 0 0 0 0 1012.6 1012.5 -
28/06:00am 19.9 23.5 19.7 99 0.1 CALM 0 0 0 0 1012.4 1012.3 -
28/05:42am 20.1 23.8 19.9 99 0.1 CALM 0 0 0 0 1012.4 1012.3 -
28/05:30am 20.3 24.1 20.1 99 0.1 CALM 0 0 0 0 1012.3 1012.2 -
28/05:00am 20.8 24.8 20.5 98 0.2 CALM 0 0 0 0 1011.9 1011.8 -
28/04:30am 20.9 24.9 20.6 98 0.2 CALM 0 0 0 0 1011.8 1011.7 -
28/04:00am 21.5 25.8 21.2 98 0.2 CALM 0 6 0 3 1011.8 1011.7 -
28/03:30am 21.5 24.4 21.0 97 0.3 ESE 7 7 4 4 1012.1 1012.0 -
28/03:00am 21.9 24.6 21.4 97 0.3 ESE 9 9 5 5 1012.3 1012.2 0.0
28/02:30am 21.6 25.6 20.6 94 0.6 CALM 0 0 0 0 1012.4 1012.3 -
28/02:00am 22.6 26.2 21.2 92 0.9 ESE 4 6 2 3 1012.7 1012.6 -
28/01:30am 22.6 25.6 21.2 92 0.9 ESE 7 9 4 5 1013.0 1012.9 -
28/01:00am 23.4 26.1 21.3 88 1.4 ESE 9 11 5 6 1013.3 1013.2 -
28/12:30am 23.7 26.4 21.4 87 1.5 ESE 9 13 5 7 1013.6 1013.5 -
28/12:00am 24.1 26.5 21.6 86 1.7 ESE 11 15 6 8 1013.7 1013.6 -
 
Date/Time
EDT
Temp
°C
App
Temp
°C
Dew
Point
°C
Rel
Hum
%
Delta-T
°C
Wind Press
QNH
hPa
Press
MSL
hPa
Rain since
9am
mm
Dir  Spd
km/h
Gust
km/h
Spd
kts
Gust
kts
27/11:30pm 24.2 25.8 21.5 85 1.8 E 15 19 8 10 1013.8 1013.7 -
27/11:00pm 24.2 27.3 21.5 85 1.8 ESE 7 11 4 6 1013.8 1013.7 -
27/10:30pm 24.3 26.7 21.6 85 1.8 E 11 15 6 8 1013.7 1013.6 -
27/10:00pm 24.5 26.7 21.2 82 2.2 E 11 17 6 9 1013.7 1013.6 -
27/09:30pm 25.3 26.7 21.0 77 2.8 ESE 15 20 8 11 1013.6 1013.5 -
27/09:00pm 25.8 27.5 21.0 75 3.2 ESE 13 20 7 11 1013.6 1013.5 0.0
27/08:30pm 25.3 28.4 22.8 86 1.7 SSE 11 15 6 8 1013.1 1013.0 -
27/08:00pm 25.6 28.5 22.5 83 2.1 SSE 11 17 6 9 1012.7 1012.6 -
27/07:30pm 25.8 28.3 22.5 82 2.2 SE 13 17 7 9 1012.5 1012.4 -
27/07:00pm 26.2 27.9 22.3 79 2.6 ESE 17 22 9 12 1012.7 1012.6 -
27/06:30pm 26.4 26.7 21.6 75 3.2 E 22 32 12 17 1012.6 1012.5 -
27/06:00pm 27.3 27.0 21.1 69 4.1 SE 24 30 13 16 1011.8 1011.7 -
27/05:30pm 27.8 27.0 20.9 66 4.6 ESE 26 35 14 19 1011.6 1011.5 -
27/05:00pm 28.4 27.9 20.7 63 5.1 ESE 24 33 13 18 1011.7 1011.6 -
27/04:30pm 29.7 29.6 20.8 58 5.9 SE 22 30 12 16 1011.2 1011.1 -
27/04:00pm 29.5 30.5 21.7 63 5.3 SE 19 28 10 15 1011.6 1011.5 -
27/03:30pm 29.0 29.4 21.0 62 5.3 SE 20 30 11 16 1012.0 1011.9 -
27/03:00pm 29.9 31.2 22.6 65 5.0 ESE 20 30 11 16 1012.3 1012.2 0.2
27/02:30pm 29.0 29.7 21.5 64 5.0 SE 20 32 11 17 1012.8 1012.7 -
27/02:00pm 30.7 32.6 22.0 59 5.9 ESE 15 22 8 12 1012.9 1012.8 -
27/01:30pm 29.1 31.1 20.8 61 5.5 SE 11 22 6 12 1013.2 1013.1 -
27/01:00pm 29.8 32.1 22.0 63 5.3 ESE 13 20 7 11 1013.4 1013.3 -
27/12:30pm 30.0 33.1 22.9 65 4.9 ESE 11 17 6 9 1013.5 1013.4 -
27/12:00pm 27.7 29.4 21.0 67 4.4 SE 13 20 7 11 1013.8 1013.7 0.0
27/11:30am 28.0 29.8 20.3 63 5.1 E 11 15 6 8 1014.0 1013.9 0.0
27/11:00am 26.9 29.8 21.0 70 3.9 E 7 13 4 7 1014.2 1014.1 0.0
27/10:30am 26.5 29.6 21.0 72 3.6 SSW 6 7 3 4 1014.5 1014.4 0.0
27/10:00am 25.9 29.0 21.1 75 3.2 SSW 6 9 3 5 1014.6 1014.5 0.0
27/09:42am 24.6 27.5 21.1 81 2.3 SSW 7 11 4 6 1014.7 1014.6 0.0
27/09:30am 24.5 27.2 21.4 83 2.0 SSW 9 13 5 7 1014.7 1014.6 0.0
27/09:00am 24.0 27.5 21.1 84 1.9 SSW 4 7 2 4 1014.6 1014.5 6.2
27/08:30am 23.1 26.4 21.5 91 1.1 SSE 6 7 3 4 1014.6 1014.5 6.2
27/08:00am 22.4 25.4 21.2 93 0.8 SSE 7 9 4 5 1014.5 1014.4 6.2
27/07:30am 21.7 26.0 21.2 97 0.3 CALM 0 0 0 0 1014.3 1014.2 6.2
27/07:14am 21.3 25.5 21.0 98 0.2 CALM 0 0 0 0 1014.2 1014.1 6.2

Other formats

Comma delimited format used in spreadsheet applications
http://www.bom.gov.au/fwo/IDN60801/IDN60801.94650.axf

JavaScript Object Notation format (JSON) in row-major order
http://www.bom.gov.au/fwo/IDN60801/IDN60801.94650.json

Data quality

Most of these data are generated automatically and are frequently updated. Quality checks on data are not normally performed. It is possible for incorrect values to appear. Refer to information at About Latest Weather Observations and please check the disclaimer before using these data.